sensor_id;sensor_type;location;lat;lon;timestamp;pressure;altitude;pressure_sealevel;temperature;humidity
71948;BME280;63257;55.082;38.772;2023-04-22T00:01:45;99340.47;;;6.90;50.30
71948;BME280;63257;55.082;38.772;2023-04-22T00:04:11;99308.16;;;6.70;50.49
71948;BME280;63257;55.082;38.772;2023-04-22T00:06:37;99335.50;;;6.84;50.65
71948;BME280;63257;55.082;38.772;2023-04-22T00:09:05;99329.91;;;6.72;50.17
71948;BME280;63257;55.082;38.772;2023-04-22T00:11:31;99341.75;;;6.81;50.51
71948;BME280;63257;55.082;38.772;2023-04-22T00:13:57;99328.69;;;6.79;51.03
71948;BME280;63257;55.082;38.772;2023-04-22T00:16:23;99340.25;;;6.75;50.57
71948;BME280;63257;55.082;38.772;2023-04-22T00:18:50;99333.31;;;6.74;50.79
71948;BME280;63257;55.082;38.772;2023-04-22T00:21:17;99343.03;;;6.72;50.67
71948;BME280;63257;55.082;38.772;2023-04-22T00:23:42;99330.28;;;6.65;51.30
71948;BME280;63257;55.082;38.772;2023-04-22T00:26:10;99335.41;;;6.68;51.04
71948;BME280;63257;55.082;38.772;2023-04-22T00:28:38;99337.22;;;6.66;51.14
71948;BME280;63257;55.082;38.772;2023-04-22T00:31:04;99325.59;;;6.52;51.25
71948;BME280;63257;55.082;38.772;2023-04-22T00:33:31;99338.72;;;6.52;51.83
71948;BME280;63257;55.082;38.772;2023-04-22T00:35:57;99335.09;;;6.55;51.26
71948;BME280;63257;55.082;38.772;2023-04-22T00:38:22;99336.16;;;6.51;51.61
71948;BME280;63257;55.082;38.772;2023-04-22T00:40:48;99328.53;;;6.46;51.96
71948;BME280;63257;55.082;38.772;2023-04-22T00:43:15;99325.91;;;6.46;52.13
71948;BME280;63257;55.082;38.772;2023-04-22T00:45:42;99327.88;;;6.41;51.88
71948;BME280;63257;55.082;38.772;2023-04-22T00:48:09;99326.97;;;6.42;52.12
71948;BME280;63257;55.082;38.772;2023-04-22T00:50:34;99333.13;;;6.41;51.83
71948;BME280;63257;55.082;38.772;2023-04-22T00:53:00;99309.09;;;6.31;51.81
71948;BME280;63257;55.082;38.772;2023-04-22T00:55:26;99315.06;;;6.35;52.17
71948;BME280;63257;55.082;38.772;2023-04-22T00:57:54;99324.41;;;6.40;52.27
71948;BME280;63257;55.082;38.772;2023-04-22T01:00:22;99295.50;;;6.23;52.30
71948;BME280;63257;55.082;38.772;2023-04-22T01:02:53;99299.75;;;6.25;52.68
71948;BME280;63257;55.082;38.772;2023-04-22T01:05:19;99319.44;;;6.34;52.85
71948;BME280;63257;55.082;38.772;2023-04-22T01:07:46;99314.50;;;6.28;53.02
71948;BME280;63257;55.082;38.772;2023-04-22T01:10:12;99314.34;;;6.31;53.19
71948;BME280;63257;55.082;38.772;2023-04-22T01:12:37;99322.34;;;6.28;52.97
71948;BME280;63257;55.082;38.772;2023-04-22T01:15:04;99309.38;;;6.25;53.39
71948;BME280;63257;55.082;38.772;2023-04-22T01:17:32;99297.31;;;6.21;53.55
71948;BME280;63257;55.082;38.772;2023-04-22T01:19:59;99301.66;;;6.22;53.38
71948;BME280;63257;55.082;38.772;2023-04-22T01:22:25;99303.69;;;6.15;53.50
71948;BME280;63257;55.082;38.772;2023-04-22T01:24:54;99304.50;;;6.17;53.37
71948;BME280;63257;55.082;38.772;2023-04-22T01:27:21;99274.00;;;5.95;53.16
71948;BME280;63257;55.082;38.772;2023-04-22T01:29:47;99309.81;;;6.16;53.77
71948;BME280;63257;55.082;38.772;2023-04-22T01:32:13;99305.56;;;6.13;53.92
71948;BME280;63257;55.082;38.772;2023-04-22T01:34:39;99304.91;;;6.08;53.92
71948;BME280;63257;55.082;38.772;2023-04-22T01:37:06;99301.53;;;6.06;54.15
71948;BME280;63257;55.082;38.772;2023-04-22T01:39:32;99299.16;;;6.00;54.38
71948;BME280;63257;55.082;38.772;2023-04-22T01:41:58;99298.41;;;5.96;54.32
71948;BME280;63257;55.082;38.772;2023-04-22T01:44:24;99305.34;;;5.97;54.64
71948;BME280;63257;55.082;38.772;2023-04-22T01:46:51;99307.28;;;5.93;55.07
71948;BME280;63257;55.082;38.772;2023-04-22T01:49:17;99294.34;;;5.89;54.68
71948;BME280;63257;55.082;38.772;2023-04-22T01:51:42;99302.22;;;5.89;54.94
71948;BME280;63257;55.082;38.772;2023-04-22T01:54:09;99296.06;;;5.90;54.94
71948;BME280;63257;55.082;38.772;2023-04-22T01:56:35;99299.59;;;5.89;54.70
71948;BME280;63257;55.082;38.772;2023-04-22T01:59:03;99299.09;;;5.81;55.29
71948;BME280;63257;55.082;38.772;2023-04-22T02:01:33;99312.75;;;5.87;55.27
71948;BME280;63257;55.082;38.772;2023-04-22T02:04:00;99287.25;;;5.72;55.47
71948;BME280;63257;55.082;38.772;2023-04-22T02:06:26;99322.41;;;5.87;55.69
71948;BME280;63257;55.082;38.772;2023-04-22T02:08:52;99306.88;;;5.82;55.45
71948;BME280;63257;55.082;38.772;2023-04-22T02:11:17;99317.34;;;5.82;55.39
71948;BME280;63257;55.082;38.772;2023-04-22T02:13:43;99311.41;;;5.78;55.61
71948;BME280;63257;55.082;38.772;2023-04-22T02:16:09;99287.41;;;5.69;55.63
71948;BME280;63257;55.082;38.772;2023-04-22T02:18:35;99309.41;;;5.84;55.74
71948;BME280;63257;55.082;38.772;2023-04-22T02:21:01;99300.34;;;5.72;56.08
71948;BME280;63257;55.082;38.772;2023-04-22T02:23:27;99313.16;;;5.78;56.04
71948;BME280;63257;55.082;38.772;2023-04-22T02:25:54;99313.16;;;5.78;56.30
71948;BME280;63257;55.082;38.772;2023-04-22T02:28:20;99309.78;;;5.76;56.11
71948;BME280;63257;55.082;38.772;2023-04-22T02:30:46;99312.31;;;5.77;56.57
71948;BME280;63257;55.082;38.772;2023-04-22T02:33:13;99313.31;;;5.75;56.40
71948;BME280;63257;55.082;38.772;2023-04-22T02:35:39;99301.25;;;5.71;56.60
71948;BME280;63257;55.082;38.772;2023-04-22T02:38:05;99318.47;;;5.76;56.18
71948;BME280;63257;55.082;38.772;2023-04-22T02:40:31;99306.28;;;5.75;56.60
71948;BME280;63257;55.082;38.772;2023-04-22T02:42:57;99301.91;;;5.76;56.44
71948;BME280;63257;55.082;38.772;2023-04-22T02:45:23;99308.72;;;5.80;56.32
71948;BME280;63257;55.082;38.772;2023-04-22T02:47:49;99322.59;;;5.82;56.62
71948;BME280;63257;55.082;38.772;2023-04-22T02:50:15;99314.88;;;5.79;56.57
71948;BME280;63257;55.082;38.772;2023-04-22T02:52:41;99326.69;;;5.88;56.82
71948;BME280;63257;55.082;38.772;2023-04-22T02:55:07;99329.22;;;5.91;56.22
71948;BME280;63257;55.082;38.772;2023-04-22T02:57:33;99326.66;;;5.89;56.12
71948;BME280;63257;55.082;38.772;2023-04-22T02:59:59;99330.88;;;5.92;56.12
71948;BME280;63257;55.082;38.772;2023-04-22T03:02:25;99329.28;;;5.89;56.31
71948;BME280;63257;55.082;38.772;2023-04-22T03:05:04;99333.28;;;5.98;56.28
71948;BME280;63257;55.082;38.772;2023-04-22T03:07:31;99335.06;;;5.96;55.99
71948;BME280;63257;55.082;38.772;2023-04-22T03:09:58;99332.44;;;5.96;56.35
71948;BME280;63257;55.082;38.772;2023-04-22T03:12:24;99332.44;;;5.96;56.17
71948;BME280;63257;55.082;38.772;2023-04-22T03:14:51;99329.81;;;5.98;56.60
71948;BME280;63257;55.082;38.772;2023-04-22T03:17:18;99311.78;;;5.90;56.60
71948;BME280;63257;55.082;38.772;2023-04-22T03:19:46;99331.31;;;6.03;56.41
71948;BME280;63257;55.082;38.772;2023-04-22T03:22:13;99329.22;;;6.11;56.14
71948;BME280;63257;55.082;38.772;2023-04-22T03:24:39;99333.56;;;6.11;56.21
71948;BME280;63257;55.082;38.772;2023-04-22T03:27:09;99319.00;;;6.05;56.28
71948;BME280;63257;55.082;38.772;2023-04-22T03:29:35;99343.94;;;6.14;56.29
71948;BME280;63257;55.082;38.772;2023-04-22T03:32:01;99338.16;;;6.26;55.97
71948;BME280;63257;55.082;38.772;2023-04-22T03:34:27;99332.34;;;6.20;56.08
71948;BME280;63257;55.082;38.772;2023-04-22T03:36:53;99330.97;;;6.30;55.60
71948;BME280;63257;55.082;38.772;2023-04-22T03:39:19;99341.13;;;6.38;55.31
71948;BME280;63257;55.082;38.772;2023-04-22T03:41:45;99341.91;;;6.40;55.39
71948;BME280;63257;55.082;38.772;2023-04-22T03:44:11;99335.47;;;6.47;55.18
71948;BME280;63257;55.082;38.772;2023-04-22T03:46:38;99342.47;;;6.66;54.25
71948;BME280;63257;55.082;38.772;2023-04-22T03:49:14;99338.19;;;6.82;54.51
71948;BME280;63257;55.082;38.772;2023-04-22T03:51:41;99317.44;;;6.77;53.70
71948;BME280;63257;55.082;38.772;2023-04-22T03:54:11;99320.63;;;6.84;53.90
71948;BME280;63257;55.082;38.772;2023-04-22T03:56:44;99348.66;;;7.01;53.71
71948;BME280;63257;55.082;38.772;2023-04-22T03:59:10;99346.53;;;7.09;53.17
71948;BME280;63257;55.082;38.772;2023-04-22T04:01:36;99342.97;;;7.10;53.40
71948;BME280;63257;55.082;38.772;2023-04-22T04:04:05;99341.59;;;7.21;53.09
71948;BME280;63257;55.082;38.772;2023-04-22T04:06:43;99355.28;;;7.27;52.96
71948;BME280;63257;55.082;38.772;2023-04-22T04:09:08;99341.22;;;7.28;52.48
71948;BME280;63257;55.082;38.772;2023-04-22T04:11:35;99321.44;;;7.39;52.83
71948;BME280;63257;55.082;38.772;2023-04-22T04:14:02;99343.25;;;7.41;52.24
71948;BME280;63257;55.082;38.772;2023-04-22T04:16:34;99329.03;;;7.45;52.11
71948;BME280;63257;55.082;38.772;2023-04-22T04:19:07;99329.88;;;7.63;52.47
71948;BME280;63257;55.082;38.772;2023-04-22T04:21:35;99352.06;;;7.75;51.47
71948;BME280;63257;55.082;38.772;2023-04-22T04:24:05;99351.09;;;7.76;51.66
71948;BME280;63257;55.082;38.772;2023-04-22T04:26:35;99362.47;;;7.76;51.50
71948;BME280;63257;55.082;38.772;2023-04-22T04:29:09;99356.72;;;7.86;51.28
71948;BME280;63257;55.082;38.772;2023-04-22T04:31:38;99355.81;;;7.87;51.40
71948;BME280;63257;55.082;38.772;2023-04-22T04:34:04;99356.44;;;7.92;51.67
71948;BME280;63257;55.082;38.772;2023-04-22T04:36:31;99355.34;;;7.96;52.19
71948;BME280;63257;55.082;38.772;2023-04-22T04:39:08;99345.31;;;7.87;51.87
71948;BME280;63257;55.082;38.772;2023-04-22T04:41:35;99352.38;;;8.02;51.31
71948;BME280;63257;55.082;38.772;2023-04-22T04:44:04;99344.28;;;7.89;50.57
71948;BME280;63257;55.082;38.772;2023-04-22T04:46:34;99359.69;;;7.97;51.41
71948;BME280;63257;55.082;38.772;2023-04-22T04:49:03;99350.88;;;7.80;51.19
71948;BME280;63257;55.082;38.772;2023-04-22T04:51:40;99362.38;;;7.95;50.78
71948;BME280;63257;55.082;38.772;2023-04-22T04:54:06;99333.66;;;7.75;50.37
71948;BME280;63257;55.082;38.772;2023-04-22T04:56:36;99360.06;;;7.89;50.74
71948;BME280;63257;55.082;38.772;2023-04-22T04:59:02;99358.59;;;8.01;51.22
71948;BME280;63257;55.082;38.772;2023-04-22T05:01:28;99361.22;;;8.01;50.38
71948;BME280;63257;55.082;38.772;2023-04-22T05:04:00;99347.19;;;8.18;50.24
71948;BME280;63257;55.082;38.772;2023-04-22T05:06:26;99360.59;;;8.29;50.06
71948;BME280;63257;55.082;38.772;2023-04-22T05:08:58;99362.19;;;8.49;49.96
71948;BME280;63257;55.082;38.772;2023-04-22T05:11:24;99356.09;;;8.65;49.59
71948;BME280;63257;55.082;38.772;2023-04-22T05:13:51;99295.47;;;8.35;49.03
71948;BME280;63257;55.082;38.772;2023-04-22T05:16:23;99361.19;;;8.84;48.65
71948;BME280;63257;55.082;38.772;2023-04-22T05:18:49;99365.50;;;9.01;48.41
71948;BME280;63257;55.082;38.772;2023-04-22T05:21:15;99348.03;;;9.00;47.92
71948;BME280;63257;55.082;38.772;2023-04-22T05:23:42;99361.50;;;9.26;47.71
71948;BME280;63257;55.082;38.772;2023-04-22T05:26:08;99366.50;;;9.30;47.23
71948;BME280;63257;55.082;38.772;2023-04-22T05:28:37;99352.63;;;9.43;47.59
71948;BME280;63257;55.082;38.772;2023-04-22T05:31:04;99349.88;;;9.60;46.80
71948;BME280;63257;55.082;38.772;2023-04-22T05:33:31;99360.63;;;9.72;45.12
71948;BME280;63257;55.082;38.772;2023-04-22T05:35:57;99359.13;;;9.82;44.82
71948;BME280;63257;55.082;38.772;2023-04-22T05:38:23;99350.00;;;9.88;44.70
71948;BME280;63257;55.082;38.772;2023-04-22T05:40:50;99357.34;;;9.97;43.77
71948;BME280;63257;55.082;38.772;2023-04-22T05:43:16;99353.88;;;10.11;43.13
71948;BME280;63257;55.082;38.772;2023-04-22T05:50:20;99313.47;;;10.25;42.94
71948;BME280;63257;55.082;38.772;2023-04-22T05:52:56;99325.94;;;10.51;41.76
71948;BME280;63257;55.082;38.772;2023-04-22T05:55:22;99342.09;;;10.74;41.07
71948;BME280;63257;55.082;38.772;2023-04-22T05:58:16;99349.41;;;10.98;41.04
71948;BME280;63257;55.082;38.772;2023-04-22T06:00:51;99361.41;;;11.16;39.64
71948;BME280;63257;55.082;38.772;2023-04-22T06:03:36;99353.44;;;11.31;39.74
71948;BME280;63257;55.082;38.772;2023-04-22T06:06:03;99342.16;;;11.42;39.53
71948;BME280;63257;55.082;38.772;2023-04-22T06:08:30;99336.13;;;11.40;38.84
71948;BME280;63257;55.082;38.772;2023-04-22T06:10:56;99350.22;;;11.53;38.58
71948;BME280;63257;55.082;38.772;2023-04-22T06:13:24;99350.22;;;11.66;37.93
71948;BME280;63257;55.082;38.772;2023-04-22T06:15:51;99356.81;;;11.86;37.87
71948;BME280;63257;55.082;38.772;2023-04-22T06:18:26;99344.16;;;12.04;37.54
71948;BME280;63257;55.082;38.772;2023-04-22T06:20:54;99345.00;;;12.04;36.35
71948;BME280;63257;55.082;38.772;2023-04-22T06:23:21;99368.94;;;12.16;36.08
71948;BME280;63257;55.082;38.772;2023-04-22T06:25:47;99345.84;;;12.18;35.84
71948;BME280;63257;55.082;38.772;2023-04-22T06:28:13;99353.16;;;12.27;35.52
71948;BME280;63257;55.082;38.772;2023-04-22T06:30:39;99347.22;;;12.36;35.50
71948;BME280;63257;55.082;38.772;2023-04-22T06:33:05;99342.00;;;12.48;35.15
71948;BME280;63257;55.082;38.772;2023-04-22T06:35:31;99338.25;;;12.63;34.77
71948;BME280;63257;55.082;38.772;2023-04-22T06:37:57;99342.19;;;12.58;33.99
71948;BME280;63257;55.082;38.772;2023-04-22T06:40:27;99348.22;;;12.60;34.20
71948;BME280;63257;55.082;38.772;2023-04-22T06:43:16;99337.09;;;12.67;33.67
71948;BME280;63257;55.082;38.772;2023-04-22T06:46:01;99301.66;;;12.57;34.01
71948;BME280;63257;55.082;38.772;2023-04-22T06:48:46;99335.38;;;12.79;33.69
71948;BME280;63257;55.082;38.772;2023-04-22T06:51:32;99352.69;;;12.96;33.36
71948;BME280;63257;55.082;38.772;2023-04-22T06:53:58;99341.84;;;12.75;33.10
71948;BME280;63257;55.082;38.772;2023-04-22T06:56:24;99329.31;;;12.77;32.75
71948;BME280;63257;55.082;38.772;2023-04-22T06:58:50;99352.13;;;13.04;33.72
71948;BME280;63257;55.082;38.772;2023-04-22T07:01:17;99346.66;;;13.18;33.15
71948;BME280;63257;55.082;38.772;2023-04-22T07:03:43;99339.44;;;13.20;32.97
71948;BME280;63257;55.082;38.772;2023-04-22T07:06:13;99342.03;;;13.33;32.79
71948;BME280;63257;55.082;38.772;2023-04-22T07:08:38;99357.78;;;13.48;32.17
71948;BME280;63257;55.082;38.772;2023-04-22T07:11:05;99342.72;;;13.48;31.66
71948;BME280;63257;55.082;38.772;2023-04-22T07:13:56;99355.28;;;13.57;30.79
71948;BME280;63257;55.082;38.772;2023-04-22T07:16:22;99343.38;;;13.63;30.59
71948;BME280;63257;55.082;38.772;2023-04-22T07:18:48;99355.44;;;13.67;31.30
71948;BME280;63257;55.082;38.772;2023-04-22T07:21:14;99336.25;;;13.64;30.96
71948;BME280;63257;55.082;38.772;2023-04-22T07:23:39;99354.47;;;13.68;31.22
71948;BME280;63257;55.082;38.772;2023-04-22T07:26:05;99355.22;;;13.82;30.72
71948;BME280;63257;55.082;38.772;2023-04-22T07:33:02;99356.00;;;13.60;30.52
71948;BME280;63257;55.082;38.772;2023-04-22T07:35:28;99351.75;;;13.46;30.70
71948;BME280;63257;55.082;38.772;2023-04-22T07:37:54;99348.03;;;13.48;30.79
71948;BME280;63257;55.082;38.772;2023-04-22T07:40:20;99354.63;;;13.43;30.47
71948;BME280;63257;55.082;38.772;2023-04-22T07:42:46;99341.97;;;13.46;30.37
71948;BME280;63257;55.082;38.772;2023-04-22T07:49:05;99357.09;;;14.27;30.04
71948;BME280;63257;55.082;38.772;2023-04-22T07:51:30;99348.16;;;14.16;30.16
71948;BME280;63257;55.082;38.772;2023-04-22T07:53:56;99329.25;;;14.10;30.44
71948;BME280;63257;55.082;38.772;2023-04-22T07:56:22;99348.16;;;14.05;30.64
71948;BME280;63257;55.082;38.772;2023-04-22T07:58:48;99350.78;;;13.82;30.00
71948;BME280;63257;55.082;38.772;2023-04-22T08:01:14;99355.47;;;13.90;30.19
71948;BME280;63257;55.082;38.772;2023-04-22T08:03:40;99355.31;;;14.38;30.12
71948;BME280;63257;55.082;38.772;2023-04-22T08:06:06;99351.69;;;14.51;30.09
71948;BME280;63257;55.082;38.772;2023-04-22T08:08:32;99352.53;;;14.40;29.19
71948;BME280;63257;55.082;38.772;2023-04-22T08:10:58;99354.06;;;14.31;29.23
71948;BME280;63257;55.082;38.772;2023-04-22T08:13:24;99341.19;;;14.15;29.32
71948;BME280;63257;55.082;38.772;2023-04-22T08:15:50;99349.03;;;14.17;29.24
71948;BME280;63257;55.082;38.772;2023-04-22T08:18:16;99346.63;;;14.14;28.96
71948;BME280;63257;55.082;38.772;2023-04-22T08:20:41;99313.28;;;13.98;28.94
71948;BME280;63257;55.082;38.772;2023-04-22T08:27:26;99338.91;;;14.67;27.11
71948;BME280;63257;55.082;38.772;2023-04-22T08:29:52;99346.34;;;14.62;27.59
71948;BME280;63257;55.082;38.772;2023-04-22T08:32:18;99347.91;;;14.87;28.21
71948;BME280;63257;55.082;38.772;2023-04-22T08:34:45;99341.50;;;15.34;27.00
71948;BME280;63257;55.082;38.772;2023-04-22T08:37:11;99341.94;;;15.06;26.69
71948;BME280;63257;55.082;38.772;2023-04-22T08:39:37;99346.84;;;14.79;27.16
71948;BME280;63257;55.082;38.772;2023-04-22T08:42:04;99344.78;;;14.82;27.37
71948;BME280;63257;55.082;38.772;2023-04-22T08:44:30;99346.84;;;14.79;27.63
71948;BME280;63257;55.082;38.772;2023-04-22T08:46:57;99345.34;;;14.97;27.59
71948;BME280;63257;55.082;38.772;2023-04-22T08:49:24;99345.22;;;15.10;27.42
71948;BME280;63257;55.082;38.772;2023-04-22T08:51:50;99344.38;;;14.98;26.31
71948;BME280;63257;55.082;38.772;2023-04-22T08:54:17;99334.28;;;15.24;25.99
71948;BME280;63257;55.082;38.772;2023-04-22T08:56:44;99343.97;;;15.47;25.19
71948;BME280;63257;55.082;38.772;2023-04-22T08:59:11;99353.81;;;15.35;24.84
71948;BME280;63257;55.082;38.772;2023-04-22T09:01:41;99343.75;;;15.38;24.83
71948;BME280;63257;55.082;38.772;2023-04-22T09:04:13;99346.72;;;15.77;24.59
71948;BME280;63257;55.082;38.772;2023-04-22T09:06:39;99342.38;;;16.19;24.05
71948;BME280;63257;55.082;38.772;2023-04-22T09:09:06;99334.38;;;16.19;24.12
71948;BME280;63257;55.082;38.772;2023-04-22T09:11:33;99321.78;;;16.21;24.45
71948;BME280;63257;55.082;38.772;2023-04-22T09:14:02;99338.97;;;15.86;24.00
71948;BME280;63257;55.082;38.772;2023-04-22T09:16:39;99344.25;;;15.65;24.45
71948;BME280;63257;55.082;38.772;2023-04-22T09:19:10;99335.22;;;15.77;25.00
71948;BME280;63257;55.082;38.772;2023-04-22T09:21:36;99344.34;;;15.96;24.20
71948;BME280;63257;55.082;38.772;2023-04-22T09:24:02;99339.72;;;16.19;24.83
71948;BME280;63257;55.082;38.772;2023-04-22T09:26:29;99348.03;;;16.04;24.29
71948;BME280;63257;55.082;38.772;2023-04-22T09:28:57;99309.66;;;16.07;24.55
71948;BME280;63257;55.082;38.772;2023-04-22T09:31:24;99341.22;;;16.11;24.10
71948;BME280;63257;55.082;38.772;2023-04-22T09:33:53;99333.09;;;15.92;24.97
71948;BME280;63257;55.082;38.772;2023-04-22T09:36:24;99340.91;;;15.84;25.04
71948;BME280;63257;55.082;38.772;2023-04-22T09:38:57;99352.53;;;15.50;25.00
71948;BME280;63257;55.082;38.772;2023-04-22T09:41:31;99333.59;;;15.43;25.20
71948;BME280;63257;55.082;38.772;2023-04-22T09:43:58;99341.06;;;15.50;25.27
71948;BME280;63257;55.082;38.772;2023-04-22T09:46:25;99339.06;;;15.63;25.09
71948;BME280;63257;55.082;38.772;2023-04-22T09:48:53;99333.44;;;15.77;23.65
71948;BME280;63257;55.082;38.772;2023-04-22T09:51:19;99332.09;;;16.14;22.94
71948;BME280;63257;55.082;38.772;2023-04-22T09:54:02;99345.00;;;16.81;22.95
71948;BME280;63257;55.082;38.772;2023-04-22T09:56:47;99315.59;;;17.11;22.25
71948;BME280;63257;55.082;38.772;2023-04-22T09:59:18;99335.50;;;16.98;23.33
71948;BME280;63257;55.082;38.772;2023-04-22T10:01:46;99335.13;;;16.71;23.46
71948;BME280;63257;55.082;38.772;2023-04-22T10:08:25;99313.44;;;16.04;23.76
71948;BME280;63257;55.082;38.772;2023-04-22T10:10:52;99341.09;;;16.13;23.63
71948;BME280;63257;55.082;38.772;2023-04-22T10:13:18;99349.88;;;16.04;23.36
71948;BME280;63257;55.082;38.772;2023-04-22T10:15:50;99339.25;;;15.71;23.62
71948;BME280;63257;55.082;38.772;2023-04-22T10:18:22;99338.56;;;16.11;23.28
71948;BME280;63257;55.082;38.772;2023-04-22T10:20:49;99342.13;;;16.62;23.10
71948;BME280;63257;55.082;38.772;2023-04-22T10:23:20;99323.47;;;17.42;22.22
71948;BME280;63257;55.082;38.772;2023-04-22T10:25:47;99329.47;;;17.93;21.11
71948;BME280;63257;55.082;38.772;2023-04-22T10:28:15;99343.81;;;17.24;22.36
71948;BME280;63257;55.082;38.772;2023-04-22T10:30:41;99350.50;;;16.58;22.96
71948;BME280;63257;55.082;38.772;2023-04-22T10:41:31;99334.53;;;15.96;24.10
71948;BME280;63257;55.082;38.772;2023-04-22T10:43:59;99342.16;;;16.01;23.00
71948;BME280;63257;55.082;38.772;2023-04-22T10:49:08;99346.22;;;16.05;23.14
71948;BME280;63257;55.082;38.772;2023-04-22T10:51:47;99353.09;;;16.69;22.51
71948;BME280;63257;55.082;38.772;2023-04-22T10:57:12;99345.50;;;17.93;21.36
71948;BME280;63257;55.082;38.772;2023-04-22T10:59:52;99342.25;;;17.02;22.54
71948;BME280;63257;55.082;38.772;2023-04-22T11:02:22;99323.28;;;16.44;23.02
71948;BME280;63257;55.082;38.772;2023-04-22T11:04:49;99338.69;;;16.41;23.30
71948;BME280;63257;55.082;38.772;2023-04-22T11:15:14;99334.03;;;16.02;23.49
71948;BME280;63257;55.082;38.772;2023-04-22T11:17:45;99346.88;;;15.97;23.98
71948;BME280;63257;55.082;38.772;2023-04-22T11:20:13;99333.69;;;15.96;23.28
71948;BME280;63257;55.082;38.772;2023-04-22T11:22:47;99348.06;;;16.35;22.80
71948;BME280;63257;55.082;38.772;2023-04-22T11:25:13;99342.47;;;16.38;22.74
71948;BME280;63257;55.082;38.772;2023-04-22T11:27:40;99337.22;;;17.38;21.44
71948;BME280;63257;55.082;38.772;2023-04-22T11:30:16;99333.00;;;18.31;20.80
71948;BME280;63257;55.082;38.772;2023-04-22T11:32:46;99330.59;;;18.66;20.79
71948;BME280;63257;55.082;38.772;2023-04-22T11:35:14;99308.66;;;18.62;21.14
71948;BME280;63257;55.082;38.772;2023-04-22T11:37:54;99327.38;;;18.35;20.73
71948;BME280;63257;55.082;38.772;2023-04-22T11:40:29;99322.06;;;17.28;21.74
71948;BME280;63257;55.082;38.772;2023-04-22T11:42:57;99338.47;;;17.04;22.42
71948;BME280;63257;55.082;38.772;2023-04-22T11:45:24;99327.22;;;16.50;23.51
71948;BME280;63257;55.082;38.772;2023-04-22T11:47:51;99317.47;;;15.77;24.17
71948;BME280;63257;55.082;38.772;2023-04-22T11:50:24;99335.13;;;16.00;24.27
71948;BME280;63257;55.082;38.772;2023-04-22T11:52:52;99321.22;;;16.58;23.01
71948;BME280;63257;55.082;38.772;2023-04-22T11:55:30;99332.66;;;17.87;21.47
71948;BME280;63257;55.082;38.772;2023-04-22T11:57:57;99323.22;;;19.06;20.76
71948;BME280;63257;55.082;38.772;2023-04-22T12:00:28;99305.69;;;19.92;19.83
71948;BME280;63257;55.082;38.772;2023-04-22T12:03:01;99321.50;;;19.59;19.55
71948;BME280;63257;55.082;38.772;2023-04-22T12:05:35;99325.78;;;18.04;21.17
71948;BME280;63257;55.082;38.772;2023-04-22T12:08:04;99328.25;;;17.19;21.96
71948;BME280;63257;55.082;38.772;2023-04-22T12:10:30;99277.28;;;16.42;22.72
71948;BME280;63257;55.082;38.772;2023-04-22T12:12:56;99328.44;;;16.36;23.21
71948;BME280;63257;55.082;38.772;2023-04-22T12:15:22;99309.19;;;16.23;23.07
71948;BME280;63257;55.082;38.772;2023-04-22T12:17:49;99330.31;;;16.15;23.25
71948;BME280;63257;55.082;38.772;2023-04-22T12:20:16;99332.75;;;15.97;23.99
71948;BME280;63257;55.082;38.772;2023-04-22T12:22:42;99310.63;;;16.06;24.29
71948;BME280;63257;55.082;38.772;2023-04-22T12:25:08;99323.00;;;16.17;23.98
71948;BME280;63257;55.082;38.772;2023-04-22T12:27:35;99329.41;;;16.35;23.76
71948;BME280;63257;55.082;38.772;2023-04-22T12:30:02;99322.75;;;17.50;22.62
71948;BME280;63257;55.082;38.772;2023-04-22T12:32:31;99318.22;;;18.93;21.55
71948;BME280;63257;55.082;38.772;2023-04-22T12:34:57;99303.66;;;19.41;20.18
71948;BME280;63257;55.082;38.772;2023-04-22T12:37:23;99313.66;;;19.39;20.15
71948;BME280;63257;55.082;38.772;2023-04-22T12:39:48;99309.69;;;19.07;20.22
71948;BME280;63257;55.082;38.772;2023-04-22T12:42:15;99310.66;;;19.42;20.06
71948;BME280;63257;55.082;38.772;2023-04-22T12:44:41;99308.63;;;18.44;20.94
71948;BME280;63257;55.082;38.772;2023-04-22T12:47:08;99315.34;;;17.34;22.03
71948;BME280;63257;55.082;38.772;2023-04-22T12:49:34;99314.03;;;16.99;22.69
71948;BME280;63257;55.082;38.772;2023-04-22T12:52:01;99331.19;;;17.36;22.74
71948;BME280;63257;55.082;38.772;2023-04-22T12:54:27;99319.91;;;18.38;21.99
71948;BME280;63257;55.082;38.772;2023-04-22T12:56:53;99321.59;;;18.67;21.93
71948;BME280;63257;55.082;38.772;2023-04-22T12:59:18;99318.06;;;18.67;21.68
71948;BME280;63257;55.082;38.772;2023-04-22T13:01:45;99301.56;;;19.35;20.56
71948;BME280;63257;55.082;38.772;2023-04-22T13:04:10;99311.94;;;19.56;20.38
71948;BME280;63257;55.082;38.772;2023-04-22T13:06:36;99311.91;;;20.61;19.50
71948;BME280;63257;55.082;38.772;2023-04-22T13:09:03;99277.81;;;20.37;18.95
71948;BME280;63257;55.082;38.772;2023-04-22T13:11:29;99324.78;;;21.09;18.75
71948;BME280;63257;55.082;38.772;2023-04-22T13:13:54;99333.72;;;21.17;18.30
71948;BME280;63257;55.082;38.772;2023-04-22T13:16:21;99328.19;;;21.19;18.58
71948;BME280;63257;55.082;38.772;2023-04-22T13:18:48;99317.28;;;21.95;18.01
71948;BME280;63257;55.082;38.772;2023-04-22T13:21:14;99330.41;;;20.38;18.90
71948;BME280;63257;55.082;38.772;2023-04-22T13:23:41;99327.41;;;20.84;19.16
71948;BME280;63257;55.082;38.772;2023-04-22T13:26:07;99330.03;;;21.10;19.05
71948;BME280;63257;55.082;38.772;2023-04-22T13:28:33;99340.47;;;19.83;19.96
71948;BME280;63257;55.082;38.772;2023-04-22T13:30:59;99339.25;;;18.50;20.62
71948;BME280;63257;55.082;38.772;2023-04-22T13:33:25;99343.06;;;18.10;22.20
71948;BME280;63257;55.082;38.772;2023-04-22T13:35:51;99322.84;;;18.35;21.54
71948;BME280;63257;55.082;38.772;2023-04-22T13:38:17;99339.34;;;18.96;20.71
71948;BME280;63257;55.082;38.772;2023-04-22T13:40:43;99311.88;;;19.48;19.99
71948;BME280;63257;55.082;38.772;2023-04-22T13:43:09;99322.19;;;18.33;21.05